Aeroporto :
LOGIN :

Iscrizione | Disclaimer

   EN    FR    IT 

 










Sommario :    VFR   VFR Marginale   IFR   IFR Intensivo   IFR Molto Intensivo
Visibilità : 
Base nubi : 
>= 8 km
>= 3000ft
5 / 8 km
1000 / 3000 ft
1500m / 5 km
500 / 1000 ft
800 / 1500m
200 / 500 ft
< 800m
< 200 ft
Simboli :   Temporali  Nebbia  Neve Forte  Precipitazioni Forti  Vento > 20 kt
SIGMETs :   Varie  Temporali  Ghiacco  Turbolenza  Onda orograficha  Ceneri Vulcaniche






- Altitudine del aeroporto : 1649 ft
- Codice IATA : HHN


EDFH - Frankfurt-Hahn Rhineland-Palatinate

ULTIMO METAR :
  • 042050Z 31008KT 270V340 9999 -RA FEW009 BKN044 09/08 Q0998

METARs OBSOLETI :
  • 042020Z 31008KT 9999 FEW009 BKN030 09/09 Q0998
  • 041950Z 31010KT 9999 SCT012 BKN025 10/09 Q0998
  • 041920Z 31008KT 9999 SCT012 BKN020 10/09 Q0997
  • 041850Z 30006KT 270V330 9999 SCT014 BKN040 10/10 Q0997

TAF TAF EDFH
Valido dal 04 a 18 ore il 05 a 18 ore UTC


041700Z 0418/0518 29007KT 9000 SCT007 BKN015
PROB30
TEMPO 0418/0421 3500 SHRA BKN004 BKN012CB
BECMG 0421/0423 BKN006
TEMPO 0423/0508 3500 -RA BR BKN003
BECMG 0506/0509 23009KT SCT009 BKN012
BECMG 0509/0512 23015G30KT SCT013 BKN020
PROB40
TEMPO 0512/0518 24020G35KT 4500 TSRA BKN010 BKN020CB



MetMap, La meteo Aeronautica in un colpo d'occhio ! - Copyright ORBIFLY Dicembre 2007 - Disclaimer

ORBIFLY MET'MAP TEAM :

Programmazione e sviluppo : Alexandra Zaïnal
Concezione : Baudouin d'Aumeries
Aiuto per la programmazione : Marc-Olivier Méhu
Supporto tecnico e logistico : Manuel Goepfert
Aiuto per la traduzione : Arnaldo La Scala

Contatto : metmap@orbifly.com




FONTI E CREDITI :

   NOAA